sensor_id;sensor_type;location;lat;lon;timestamp;temperature;humidity
9730;DHT22;4904;49.152;11.004;2023-04-24T00:01:50;10.30;99.90
9730;DHT22;4904;49.152;11.004;2023-04-24T00:04:18;10.50;99.90
9730;DHT22;4904;49.152;11.004;2023-04-24T00:06:45;10.20;99.90
9730;DHT22;4904;49.152;11.004;2023-04-24T00:09:15;10.20;99.90
9730;DHT22;4904;49.152;11.004;2023-04-24T00:11:42;10.20;99.90
9730;DHT22;4904;49.152;11.004;2023-04-24T00:14:09;10.20;99.90
9730;DHT22;4904;49.152;11.004;2023-04-24T00:16:36;10.30;99.90
9730;DHT22;4904;49.152;11.004;2023-04-24T00:19:03;10.20;99.90
9730;DHT22;4904;49.152;11.004;2023-04-24T00:21:32;10.20;99.90
9730;DHT22;4904;49.152;11.004;2023-04-24T00:23:59;10.20;99.90
9730;DHT22;4904;49.152;11.004;2023-04-24T00:26:26;10.20;99.90
9730;DHT22;4904;49.152;11.004;2023-04-24T00:28:53;10.20;99.90
9730;DHT22;4904;49.152;11.004;2023-04-24T00:31:20;10.20;99.90
9730;DHT22;4904;49.152;11.004;2023-04-24T00:33:47;10.10;99.90
9730;DHT22;4904;49.152;11.004;2023-04-24T00:36:14;10.30;99.90
9730;DHT22;4904;49.152;11.004;2023-04-24T00:38:43;10.30;99.90
9730;DHT22;4904;49.152;11.004;2023-04-24T00:41:10;10.50;99.90
9730;DHT22;4904;49.152;11.004;2023-04-24T00:43:38;10.20;99.90
9730;DHT22;4904;49.152;11.004;2023-04-24T00:46:06;10.30;99.90
9730;DHT22;4904;49.152;11.004;2023-04-24T00:48:34;10.30;99.90
9730;DHT22;4904;49.152;11.004;2023-04-24T00:51:01;10.40;99.90
9730;DHT22;4904;49.152;11.004;2023-04-24T00:53:28;10.40;99.90
9730;DHT22;4904;49.152;11.004;2023-04-24T00:55:57;10.30;99.90
9730;DHT22;4904;49.152;11.004;2023-04-24T00:58:25;10.30;99.90
9730;DHT22;4904;49.152;11.004;2023-04-24T01:00:52;10.50;99.90
9730;DHT22;4904;49.152;11.004;2023-04-24T01:03:21;10.40;99.90
9730;DHT22;4904;49.152;11.004;2023-04-24T01:05:49;10.20;99.90
9730;DHT22;4904;49.152;11.004;2023-04-24T01:08:16;10.20;99.90
9730;DHT22;4904;49.152;11.004;2023-04-24T01:10:44;10.20;99.90
9730;DHT22;4904;49.152;11.004;2023-04-24T01:13:12;10.20;99.90
9730;DHT22;4904;49.152;11.004;2023-04-24T01:15:40;10.20;99.90
9730;DHT22;4904;49.152;11.004;2023-04-24T01:18:06;10.20;99.90
9730;DHT22;4904;49.152;11.004;2023-04-24T01:20:34;10.20;99.90
9730;DHT22;4904;49.152;11.004;2023-04-24T01:23:03;10.20;99.90
9730;DHT22;4904;49.152;11.004;2023-04-24T01:25:31;10.50;99.90
9730;DHT22;4904;49.152;11.004;2023-04-24T01:27:58;10.40;99.90
9730;DHT22;4904;49.152;11.004;2023-04-24T01:30:26;10.10;99.90
9730;DHT22;4904;49.152;11.004;2023-04-24T01:32:53;10.10;99.90
9730;DHT22;4904;49.152;11.004;2023-04-24T01:35:20;10.10;99.90
9730;DHT22;4904;49.152;11.004;2023-04-24T01:37:47;10.10;99.90
9730;DHT22;4904;49.152;11.004;2023-04-24T01:40:15;10.20;99.90
9730;DHT22;4904;49.152;11.004;2023-04-24T01:42:42;10.10;99.90
9730;DHT22;4904;49.152;11.004;2023-04-24T01:45:11;10.10;99.90
9730;DHT22;4904;49.152;11.004;2023-04-24T01:47:39;10.00;99.90
9730;DHT22;4904;49.152;11.004;2023-04-24T01:50:07;10.40;99.90
9730;DHT22;4904;49.152;11.004;2023-04-24T01:52:34;10.10;99.90
9730;DHT22;4904;49.152;11.004;2023-04-24T01:55:02;10.20;99.90
9730;DHT22;4904;49.152;11.004;2023-04-24T01:57:31;10.20;99.90
9730;DHT22;4904;49.152;11.004;2023-04-24T01:59:58;10.20;99.90
9730;DHT22;4904;49.152;11.004;2023-04-24T02:02:26;10.10;99.90
9730;DHT22;4904;49.152;11.004;2023-04-24T02:04:54;10.00;99.90
9730;DHT22;4904;49.152;11.004;2023-04-24T02:07:21;9.90;99.90
9730;DHT22;4904;49.152;11.004;2023-04-24T02:09:48;10.00;99.90
9730;DHT22;4904;49.152;11.004;2023-04-24T02:12:16;10.00;99.90
9730;DHT22;4904;49.152;11.004;2023-04-24T02:14:45;10.10;99.90
9730;DHT22;4904;49.152;11.004;2023-04-24T02:17:12;10.10;99.90
9730;DHT22;4904;49.152;11.004;2023-04-24T02:19:41;10.20;99.90
9730;DHT22;4904;49.152;11.004;2023-04-24T02:22:08;10.00;99.90
9730;DHT22;4904;49.152;11.004;2023-04-24T02:24:36;10.10;99.90
9730;DHT22;4904;49.152;11.004;2023-04-24T02:27:03;10.30;99.90
9730;DHT22;4904;49.152;11.004;2023-04-24T02:29:31;10.40;99.90
9730;DHT22;4904;49.152;11.004;2023-04-24T02:31:59;10.40;99.90
9730;DHT22;4904;49.152;11.004;2023-04-24T02:34:26;10.40;99.90
9730;DHT22;4904;49.152;11.004;2023-04-24T02:36:53;10.40;99.90
9730;DHT22;4904;49.152;11.004;2023-04-24T02:39:20;10.50;99.90
9730;DHT22;4904;49.152;11.004;2023-04-24T02:41:47;10.50;99.90
9730;DHT22;4904;49.152;11.004;2023-04-24T02:44:14;10.40;99.90
9730;DHT22;4904;49.152;11.004;2023-04-24T02:46:42;10.40;99.90
9730;DHT22;4904;49.152;11.004;2023-04-24T02:49:11;10.20;99.90
9730;DHT22;4904;49.152;11.004;2023-04-24T02:51:38;10.50;99.90
9730;DHT22;4904;49.152;11.004;2023-04-24T02:54:07;10.10;99.90
9730;DHT22;4904;49.152;11.004;2023-04-24T02:56:34;10.20;99.90
9730;DHT22;4904;49.152;11.004;2023-04-24T02:59:01;10.10;99.90
9730;DHT22;4904;49.152;11.004;2023-04-24T03:01:28;10.20;99.90
9730;DHT22;4904;49.152;11.004;2023-04-24T03:03:55;10.10;99.90
9730;DHT22;4904;49.152;11.004;2023-04-24T03:06:23;10.20;99.90
9730;DHT22;4904;49.152;11.004;2023-04-24T03:08:52;10.10;99.90
9730;DHT22;4904;49.152;11.004;2023-04-24T03:11:19;10.20;99.90
9730;DHT22;4904;49.152;11.004;2023-04-24T03:13:46;10.30;99.90
9730;DHT22;4904;49.152;11.004;2023-04-24T03:16:13;10.20;99.90
9730;DHT22;4904;49.152;11.004;2023-04-24T03:18:40;10.10;99.90
9730;DHT22;4904;49.152;11.004;2023-04-24T03:21:06;10.10;99.90
9730;DHT22;4904;49.152;11.004;2023-04-24T03:23:35;10.10;99.90
9730;DHT22;4904;49.152;11.004;2023-04-24T03:26:02;10.00;99.90
9730;DHT22;4904;49.152;11.004;2023-04-24T03:28:29;10.00;99.90
9730;DHT22;4904;49.152;11.004;2023-04-24T03:30:56;10.00;99.90
9730;DHT22;4904;49.152;11.004;2023-04-24T03:33:23;10.00;99.90
9730;DHT22;4904;49.152;11.004;2023-04-24T03:35:50;9.90;99.90
9730;DHT22;4904;49.152;11.004;2023-04-24T03:38:17;10.00;99.90
9730;DHT22;4904;49.152;11.004;2023-04-24T03:40:46;10.00;99.90
9730;DHT22;4904;49.152;11.004;2023-04-24T03:43:13;10.00;99.90
9730;DHT22;4904;49.152;11.004;2023-04-24T03:45:40;10.00;99.90
9730;DHT22;4904;49.152;11.004;2023-04-24T03:48:07;10.00;99.90
9730;DHT22;4904;49.152;11.004;2023-04-24T03:50:34;9.90;99.90
9730;DHT22;4904;49.152;11.004;2023-04-24T03:53:01;10.00;99.90
9730;DHT22;4904;49.152;11.004;2023-04-24T03:55:29;10.00;99.90
9730;DHT22;4904;49.152;11.004;2023-04-24T03:57:57;9.90;99.90
9730;DHT22;4904;49.152;11.004;2023-04-24T04:00:24;10.00;99.90
9730;DHT22;4904;49.152;11.004;2023-04-24T04:02:53;9.90;99.90
9730;DHT22;4904;49.152;11.004;2023-04-24T04:05:20;9.90;99.90
9730;DHT22;4904;49.152;11.004;2023-04-24T04:07:47;9.90;99.90
9730;DHT22;4904;49.152;11.004;2023-04-24T04:10:14;10.00;99.90
9730;DHT22;4904;49.152;11.004;2023-04-24T04:12:42;9.90;99.90
9730;DHT22;4904;49.152;11.004;2023-04-24T04:15:11;9.90;99.90
9730;DHT22;4904;49.152;11.004;2023-04-24T04:17:38;9.90;99.90
9730;DHT22;4904;49.152;11.004;2023-04-24T04:20:06;9.80;99.90
9730;DHT22;4904;49.152;11.004;2023-04-24T04:22:35;9.90;99.90
9730;DHT22;4904;49.152;11.004;2023-04-24T04:25:03;9.80;99.90
9730;DHT22;4904;49.152;11.004;2023-04-24T04:27:30;9.90;99.90
9730;DHT22;4904;49.152;11.004;2023-04-24T04:29:57;9.80;99.90
9730;DHT22;4904;49.152;11.004;2023-04-24T04:32:28;9.80;99.90
9730;DHT22;4904;49.152;11.004;2023-04-24T04:34:55;9.80;99.90
9730;DHT22;4904;49.152;11.004;2023-04-24T04:37:22;9.80;99.90
9730;DHT22;4904;49.152;11.004;2023-04-24T04:39:49;10.00;99.90
9730;DHT22;4904;49.152;11.004;2023-04-24T04:42:16;10.10;99.90
9730;DHT22;4904;49.152;11.004;2023-04-24T04:44:44;9.70;99.90
9730;DHT22;4904;49.152;11.004;2023-04-24T04:47:11;9.80;99.90
9730;DHT22;4904;49.152;11.004;2023-04-24T04:49:40;9.80;99.90
9730;DHT22;4904;49.152;11.004;2023-04-24T04:52:07;9.80;99.90
9730;DHT22;4904;49.152;11.004;2023-04-24T04:54:34;9.80;99.90
9730;DHT22;4904;49.152;11.004;2023-04-24T04:57:00;9.80;99.90
9730;DHT22;4904;49.152;11.004;2023-04-24T04:59:27;9.80;99.90
9730;DHT22;4904;49.152;11.004;2023-04-24T05:01:55;10.00;99.90
9730;DHT22;4904;49.152;11.004;2023-04-24T05:04:21;9.90;99.90
9730;DHT22;4904;49.152;11.004;2023-04-24T05:06:50;9.80;99.90
9730;DHT22;4904;49.152;11.004;2023-04-24T05:09:17;9.80;99.90
9730;DHT22;4904;49.152;11.004;2023-04-24T05:11:44;9.70;99.90
9730;DHT22;4904;49.152;11.004;2023-04-24T05:14:11;9.80;99.90
9730;DHT22;4904;49.152;11.004;2023-04-24T05:16:39;9.80;99.90
9730;DHT22;4904;49.152;11.004;2023-04-24T05:19:06;10.00;99.90
9730;DHT22;4904;49.152;11.004;2023-04-24T05:21:33;9.90;99.90
9730;DHT22;4904;49.152;11.004;2023-04-24T05:24:02;9.90;99.90
9730;DHT22;4904;49.152;11.004;2023-04-24T05:26:29;9.90;99.90
9730;DHT22;4904;49.152;11.004;2023-04-24T05:28:56;10.00;99.90
9730;DHT22;4904;49.152;11.004;2023-04-24T05:31:23;9.90;99.90
9730;DHT22;4904;49.152;11.004;2023-04-24T05:33:50;10.00;99.90
9730;DHT22;4904;49.152;11.004;2023-04-24T05:36:18;10.00;99.90
9730;DHT22;4904;49.152;11.004;2023-04-24T05:38:45;10.20;99.90
9730;DHT22;4904;49.152;11.004;2023-04-24T05:41:13;10.00;99.90
9730;DHT22;4904;49.152;11.004;2023-04-24T05:43:40;10.00;99.90
9730;DHT22;4904;49.152;11.004;2023-04-24T05:46:07;10.10;99.90
9730;DHT22;4904;49.152;11.004;2023-04-24T05:48:34;10.10;99.90
9730;DHT22;4904;49.152;11.004;2023-04-24T05:51:01;10.10;99.90
9730;DHT22;4904;49.152;11.004;2023-04-24T05:53:28;10.30;99.90
9730;DHT22;4904;49.152;11.004;2023-04-24T05:55:55;10.10;99.90
9730;DHT22;4904;49.152;11.004;2023-04-24T05:58:23;10.20;99.90
9730;DHT22;4904;49.152;11.004;2023-04-24T06:00:50;10.30;99.90
9730;DHT22;4904;49.152;11.004;2023-04-24T06:03:17;10.30;99.90
9730;DHT22;4904;49.152;11.004;2023-04-24T06:05:44;10.60;99.90
9730;DHT22;4904;49.152;11.004;2023-04-24T06:08:11;10.50;99.90
9730;DHT22;4904;49.152;11.004;2023-04-24T06:10:39;10.60;99.90
9730;DHT22;4904;49.152;11.004;2023-04-24T06:13:06;10.60;99.90
9730;DHT22;4904;49.152;11.004;2023-04-24T06:15:35;10.60;99.90
9730;DHT22;4904;49.152;11.004;2023-04-24T06:18:02;10.60;99.90
9730;DHT22;4904;49.152;11.004;2023-04-24T06:20:29;10.60;99.90
9730;DHT22;4904;49.152;11.004;2023-04-24T06:22:56;10.70;99.90
9730;DHT22;4904;49.152;11.004;2023-04-24T06:25:25;10.70;99.90
9730;DHT22;4904;49.152;11.004;2023-04-24T06:27:51;10.80;99.90
9730;DHT22;4904;49.152;11.004;2023-04-24T06:30:19;11.00;99.90
9730;DHT22;4904;49.152;11.004;2023-04-24T06:32:47;11.00;99.90
9730;DHT22;4904;49.152;11.004;2023-04-24T06:35:14;11.00;99.90
9730;DHT22;4904;49.152;11.004;2023-04-24T06:37:42;11.00;99.90
9730;DHT22;4904;49.152;11.004;2023-04-24T06:40:09;11.00;99.90
9730;DHT22;4904;49.152;11.004;2023-04-24T06:42:37;11.00;99.90
9730;DHT22;4904;49.152;11.004;2023-04-24T06:45:04;11.00;99.90
9730;DHT22;4904;49.152;11.004;2023-04-24T06:47:31;10.90;99.90
9730;DHT22;4904;49.152;11.004;2023-04-24T06:50:00;10.80;99.90
9730;DHT22;4904;49.152;11.004;2023-04-24T06:52:27;10.50;99.90
9730;DHT22;4904;49.152;11.004;2023-04-24T06:55:00;10.50;99.90
9730;DHT22;4904;49.152;11.004;2023-04-24T06:57:28;10.30;99.90
9730;DHT22;4904;49.152;11.004;2023-04-24T06:59:55;10.30;99.90
9730;DHT22;4904;49.152;11.004;2023-04-24T07:02:22;10.20;99.90
9730;DHT22;4904;49.152;11.004;2023-04-24T07:04:49;10.10;99.90
9730;DHT22;4904;49.152;11.004;2023-04-24T07:07:17;10.20;99.90
9730;DHT22;4904;49.152;11.004;2023-04-24T07:09:44;10.10;99.90
9730;DHT22;4904;49.152;11.004;2023-04-24T07:12:11;10.10;99.90
9730;DHT22;4904;49.152;11.004;2023-04-24T07:14:39;10.00;99.90
9730;DHT22;4904;49.152;11.004;2023-04-24T07:17:06;10.20;99.90
9730;DHT22;4904;49.152;11.004;2023-04-24T07:19:34;10.10;99.90
9730;DHT22;4904;49.152;11.004;2023-04-24T07:22:00;10.00;99.90
9730;DHT22;4904;49.152;11.004;2023-04-24T07:24:30;10.30;99.90
9730;DHT22;4904;49.152;11.004;2023-04-24T07:26:58;9.90;99.90
9730;DHT22;4904;49.152;11.004;2023-04-24T07:29:26;9.90;99.90
9730;DHT22;4904;49.152;11.004;2023-04-24T07:31:53;9.90;99.90
9730;DHT22;4904;49.152;11.004;2023-04-24T07:34:20;9.80;99.90
9730;DHT22;4904;49.152;11.004;2023-04-24T07:36:47;9.80;99.90
9730;DHT22;4904;49.152;11.004;2023-04-24T07:39:14;9.80;99.90
9730;DHT22;4904;49.152;11.004;2023-04-24T07:41:43;9.80;99.90
9730;DHT22;4904;49.152;11.004;2023-04-24T07:44:09;9.90;99.90
9730;DHT22;4904;49.152;11.004;2023-04-24T07:46:37;9.90;99.90
9730;DHT22;4904;49.152;11.004;2023-04-24T07:49:04;10.00;99.90
9730;DHT22;4904;49.152;11.004;2023-04-24T07:51:31;10.00;99.90
9730;DHT22;4904;49.152;11.004;2023-04-24T07:54:06;10.10;99.90
9730;DHT22;4904;49.152;11.004;2023-04-24T07:56:33;10.10;99.90
9730;DHT22;4904;49.152;11.004;2023-04-24T07:59:05;10.20;99.90
9730;DHT22;4904;49.152;11.004;2023-04-24T08:01:32;10.20;99.90
9730;DHT22;4904;49.152;11.004;2023-04-24T08:04:00;10.30;99.90
9730;DHT22;4904;49.152;11.004;2023-04-24T08:06:27;10.30;99.90
9730;DHT22;4904;49.152;11.004;2023-04-24T08:08:55;10.20;99.90
9730;DHT22;4904;49.152;11.004;2023-04-24T08:11:22;10.60;99.90
9730;DHT22;4904;49.152;11.004;2023-04-24T08:13:49;10.20;99.90
9730;DHT22;4904;49.152;11.004;2023-04-24T08:16:18;10.20;99.90
9730;DHT22;4904;49.152;11.004;2023-04-24T08:18:45;10.20;99.90
9730;DHT22;4904;49.152;11.004;2023-04-24T08:21:13;10.20;99.90
9730;DHT22;4904;49.152;11.004;2023-04-24T08:23:42;10.20;99.90
9730;DHT22;4904;49.152;11.004;2023-04-24T08:26:09;10.20;99.90
9730;DHT22;4904;49.152;11.004;2023-04-24T08:28:37;10.20;99.90
9730;DHT22;4904;49.152;11.004;2023-04-24T08:31:04;10.30;99.90
9730;DHT22;4904;49.152;11.004;2023-04-24T08:33:33;10.40;99.90
9730;DHT22;4904;49.152;11.004;2023-04-24T08:36:01;10.40;99.90
9730;DHT22;4904;49.152;11.004;2023-04-24T08:38:28;10.40;99.90
9730;DHT22;4904;49.152;11.004;2023-04-24T08:40:57;10.40;99.90
9730;DHT22;4904;49.152;11.004;2023-04-24T08:43:25;10.50;99.90
9730;DHT22;4904;49.152;11.004;2023-04-24T08:45:52;10.40;99.90
9730;DHT22;4904;49.152;11.004;2023-04-24T08:48:22;10.40;99.90
9730;DHT22;4904;49.152;11.004;2023-04-24T08:50:51;10.30;99.90
9730;DHT22;4904;49.152;11.004;2023-04-24T08:53:18;10.50;99.90
9730;DHT22;4904;49.152;11.004;2023-04-24T08:55:47;10.60;99.90
9730;DHT22;4904;49.152;11.004;2023-04-24T08:58:16;10.70;99.90
9730;DHT22;4904;49.152;11.004;2023-04-24T09:00:44;11.00;99.90
9730;DHT22;4904;49.152;11.004;2023-04-24T09:03:13;10.80;99.90
9730;DHT22;4904;49.152;11.004;2023-04-24T09:05:42;10.90;99.90
9730;DHT22;4904;49.152;11.004;2023-04-24T09:08:13;10.90;99.90
9730;DHT22;4904;49.152;11.004;2023-04-24T09:10:41;11.00;99.90
9730;DHT22;4904;49.152;11.004;2023-04-24T09:13:08;10.80;99.90
9730;DHT22;4904;49.152;11.004;2023-04-24T09:15:36;10.80;99.90
9730;DHT22;4904;49.152;11.004;2023-04-24T09:18:04;10.90;99.90
9730;DHT22;4904;49.152;11.004;2023-04-24T09:20:31;11.10;99.90
9730;DHT22;4904;49.152;11.004;2023-04-24T09:22:58;11.00;99.90
9730;DHT22;4904;49.152;11.004;2023-04-24T09:25:32;11.20;99.90
9730;DHT22;4904;49.152;11.004;2023-04-24T09:28:02;11.10;99.90
9730;DHT22;4904;49.152;11.004;2023-04-24T09:30:29;11.20;99.90
9730;DHT22;4904;49.152;11.004;2023-04-24T09:33:12;11.40;99.90
9730;DHT22;4904;49.152;11.004;2023-04-24T09:35:41;11.40;99.90
9730;DHT22;4904;49.152;11.004;2023-04-24T09:38:09;11.60;99.90
9730;DHT22;4904;49.152;11.004;2023-04-24T09:40:37;11.60;99.90
9730;DHT22;4904;49.152;11.004;2023-04-24T09:43:04;11.60;99.90
9730;DHT22;4904;49.152;11.004;2023-04-24T09:45:39;11.60;99.90
9730;DHT22;4904;49.152;11.004;2023-04-24T09:48:09;11.50;99.90
9730;DHT22;4904;49.152;11.004;2023-04-24T09:50:37;11.40;99.90
9730;DHT22;4904;49.152;11.004;2023-04-24T09:53:05;11.20;99.90
9730;DHT22;4904;49.152;11.004;2023-04-24T09:55:42;11.10;99.90
9730;DHT22;4904;49.152;11.004;2023-04-24T09:58:11;10.80;99.90
9730;DHT22;4904;49.152;11.004;2023-04-24T10:00:38;11.10;99.90
9730;DHT22;4904;49.152;11.004;2023-04-24T10:03:06;11.10;99.90
9730;DHT22;4904;49.152;11.004;2023-04-24T10:05:34;11.20;99.90
9730;DHT22;4904;49.152;11.004;2023-04-24T10:08:04;11.30;99.90
9730;DHT22;4904;49.152;11.004;2023-04-24T10:10:32;11.40;99.90
9730;DHT22;4904;49.152;11.004;2023-04-24T10:13:01;11.50;99.90
9730;DHT22;4904;49.152;11.004;2023-04-24T10:15:30;11.60;99.90
9730;DHT22;4904;49.152;11.004;2023-04-24T10:17:58;11.70;99.90
9730;DHT22;4904;49.152;11.004;2023-04-24T10:20:27;11.70;99.90
9730;DHT22;4904;49.152;11.004;2023-04-24T10:22:55;11.70;99.90
9730;DHT22;4904;49.152;11.004;2023-04-24T10:25:24;11.70;99.90
9730;DHT22;4904;49.152;11.004;2023-04-24T10:27:52;11.70;99.90
9730;DHT22;4904;49.152;11.004;2023-04-24T10:30:24;11.50;99.90
9730;DHT22;4904;49.152;11.004;2023-04-24T10:32:52;11.60;99.90
9730;DHT22;4904;49.152;11.004;2023-04-24T10:35:19;11.60;99.90
9730;DHT22;4904;49.152;11.004;2023-04-24T10:37:50;11.70;99.90
9730;DHT22;4904;49.152;11.004;2023-04-24T10:40:18;11.90;99.90
9730;DHT22;4904;49.152;11.004;2023-04-24T10:42:47;12.00;99.90
9730;DHT22;4904;49.152;11.004;2023-04-24T10:45:18;12.20;99.90
9730;DHT22;4904;49.152;11.004;2023-04-24T10:47:57;12.20;99.90
9730;DHT22;4904;49.152;11.004;2023-04-24T10:50:26;12.30;99.90
9730;DHT22;4904;49.152;11.004;2023-04-24T10:52:54;12.50;99.90
9730;DHT22;4904;49.152;11.004;2023-04-24T10:55:40;12.10;99.90
9730;DHT22;4904;49.152;11.004;2023-04-24T10:58:07;12.20;99.90
9730;DHT22;4904;49.152;11.004;2023-04-24T11:00:36;12.30;99.90
9730;DHT22;4904;49.152;11.004;2023-04-24T11:03:06;12.70;99.90
9730;DHT22;4904;49.152;11.004;2023-04-24T11:05:50;12.40;99.90
9730;DHT22;4904;49.152;11.004;2023-04-24T11:08:27;12.60;99.90
9730;DHT22;4904;49.152;11.004;2023-04-24T11:11:00;12.80;99.90
9730;DHT22;4904;49.152;11.004;2023-04-24T11:14:00;12.90;99.90
9730;DHT22;4904;49.152;11.004;2023-04-24T11:16:45;12.80;99.90
9730;DHT22;4904;49.152;11.004;2023-04-24T11:19:22;13.00;99.90
9730;DHT22;4904;49.152;11.004;2023-04-24T11:21:56;12.90;99.90
9730;DHT22;4904;49.152;11.004;2023-04-24T11:24:26;12.60;99.90
9730;DHT22;4904;49.152;11.004;2023-04-24T11:26:55;12.70;99.90
9730;DHT22;4904;49.152;11.004;2023-04-24T11:29:38;12.50;99.90
9730;DHT22;4904;49.152;11.004;2023-04-24T11:32:24;12.40;99.90
9730;DHT22;4904;49.152;11.004;2023-04-24T11:34:54;12.30;99.90
9730;DHT22;4904;49.152;11.004;2023-04-24T11:37:26;12.10;99.90
9730;DHT22;4904;49.152;11.004;2023-04-24T11:39:54;12.50;99.90
9730;DHT22;4904;49.152;11.004;2023-04-24T11:42:21;11.70;99.90
9730;DHT22;4904;49.152;11.004;2023-04-24T11:44:49;11.60;99.90
9730;DHT22;4904;49.152;11.004;2023-04-24T11:47:16;11.70;99.90
9730;DHT22;4904;49.152;11.004;2023-04-24T11:49:45;11.80;99.90
9730;DHT22;4904;49.152;11.004;2023-04-24T11:52:16;11.80;99.90
9730;DHT22;4904;49.152;11.004;2023-04-24T11:54:48;11.70;99.90
9730;DHT22;4904;49.152;11.004;2023-04-24T11:57:19;11.90;99.90
9730;DHT22;4904;49.152;11.004;2023-04-24T11:59:46;11.90;99.90
9730;DHT22;4904;49.152;11.004;2023-04-24T12:02:20;12.00;99.90
9730;DHT22;4904;49.152;11.004;2023-04-24T12:04:48;12.70;99.90
9730;DHT22;4904;49.152;11.004;2023-04-24T12:07:16;11.80;99.90
9730;DHT22;4904;49.152;11.004;2023-04-24T12:09:45;11.80;99.90
9730;DHT22;4904;49.152;11.004;2023-04-24T12:12:13;12.00;99.90
9730;DHT22;4904;49.152;11.004;2023-04-24T12:14:44;11.90;99.90
9730;DHT22;4904;49.152;11.004;2023-04-24T12:17:11;11.70;99.90
9730;DHT22;4904;49.152;11.004;2023-04-24T12:19:45;11.90;99.90
9730;DHT22;4904;49.152;11.004;2023-04-24T12:22:12;12.30;99.90
9730;DHT22;4904;49.152;11.004;2023-04-24T12:25:02;12.40;99.90
9730;DHT22;4904;49.152;11.004;2023-04-24T12:27:31;12.60;99.90
9730;DHT22;4904;49.152;11.004;2023-04-24T12:30:00;12.30;99.90
9730;DHT22;4904;49.152;11.004;2023-04-24T12:32:27;12.10;99.90
9730;DHT22;4904;49.152;11.004;2023-04-24T12:34:55;11.90;99.90
9730;DHT22;4904;49.152;11.004;2023-04-24T12:37:23;11.70;99.90
9730;DHT22;4904;49.152;11.004;2023-04-24T12:40:03;11.60;99.90
9730;DHT22;4904;49.152;11.004;2023-04-24T12:42:31;11.60;99.90
9730;DHT22;4904;49.152;11.004;2023-04-24T12:45:03;11.70;99.90
9730;DHT22;4904;49.152;11.004;2023-04-24T12:47:32;11.40;99.90
9730;DHT22;4904;49.152;11.004;2023-04-24T12:50:00;11.40;99.90
9730;DHT22;4904;49.152;11.004;2023-04-24T12:52:28;11.30;99.90
9730;DHT22;4904;49.152;11.004;2023-04-24T12:54:57;11.10;99.90
9730;DHT22;4904;49.152;11.004;2023-04-24T12:57:26;11.00;99.90
9730;DHT22;4904;49.152;11.004;2023-04-24T12:59:58;10.70;99.90
9730;DHT22;4904;49.152;11.004;2023-04-24T13:02:27;10.60;99.90
9730;DHT22;4904;49.152;11.004;2023-04-24T13:04:54;10.50;99.90
9730;DHT22;4904;49.152;11.004;2023-04-24T13:07:21;10.60;99.90
9730;DHT22;4904;49.152;11.004;2023-04-24T13:09:50;10.60;99.90
9730;DHT22;4904;49.152;11.004;2023-04-24T13:12:17;10.70;99.90
9730;DHT22;4904;49.152;11.004;2023-04-24T13:14:47;10.70;99.90
9730;DHT22;4904;49.152;11.004;2023-04-24T13:17:14;10.80;99.90
9730;DHT22;4904;49.152;11.004;2023-04-24T13:19:43;10.90;99.90
9730;DHT22;4904;49.152;11.004;2023-04-24T13:22:11;11.00;99.90
9730;DHT22;4904;49.152;11.004;2023-04-24T13:24:39;11.10;99.90
9730;DHT22;4904;49.152;11.004;2023-04-24T13:27:07;11.20;99.90
9730;DHT22;4904;49.152;11.004;2023-04-24T13:29:34;11.30;99.90
9730;DHT22;4904;49.152;11.004;2023-04-24T13:32:03;11.30;99.90
9730;DHT22;4904;49.152;11.004;2023-04-24T13:34:31;11.50;99.90
9730;DHT22;4904;49.152;11.004;2023-04-24T13:36:58;11.50;99.90
9730;DHT22;4904;49.152;11.004;2023-04-24T13:39:25;11.40;99.90
9730;DHT22;4904;49.152;11.004;2023-04-24T13:41:53;11.50;99.90
9730;DHT22;4904;49.152;11.004;2023-04-24T13:44:20;11.30;99.90
9730;DHT22;4904;49.152;11.004;2023-04-24T13:46:50;11.30;99.90
9730;DHT22;4904;49.152;11.004;2023-04-24T13:49:21;11.20;99.90
9730;DHT22;4904;49.152;11.004;2023-04-24T13:51:50;11.20;99.90
9730;DHT22;4904;49.152;11.004;2023-04-24T13:54:18;11.00;99.90
9730;DHT22;4904;49.152;11.004;2023-04-24T13:56:45;10.80;99.90
9730;DHT22;4904;49.152;11.004;2023-04-24T13:59:12;10.80;99.90
9730;DHT22;4904;49.152;11.004;2023-04-24T14:01:39;10.80;99.90
9730;DHT22;4904;49.152;11.004;2023-04-24T14:04:06;10.80;99.90
9730;DHT22;4904;49.152;11.004;2023-04-24T14:06:35;10.70;99.90
9730;DHT22;4904;49.152;11.004;2023-04-24T14:09:02;10.60;99.90
9730;DHT22;4904;49.152;11.004;2023-04-24T14:11:29;10.50;99.90
9730;DHT22;4904;49.152;11.004;2023-04-24T14:13:57;10.50;99.90
9730;DHT22;4904;49.152;11.004;2023-04-24T14:16:24;10.70;99.90
9730;DHT22;4904;49.152;11.004;2023-04-24T14:18:51;11.70;99.90
9730;DHT22;4904;49.152;11.004;2023-04-24T14:21:19;11.20;99.90
9730;DHT22;4904;49.152;11.004;2023-04-24T14:23:47;11.50;99.90
9730;DHT22;4904;49.152;11.004;2023-04-24T14:26:14;11.50;99.90
9730;DHT22;4904;49.152;11.004;2023-04-24T14:28:41;11.50;99.90
9730;DHT22;4904;49.152;11.004;2023-04-24T14:31:09;11.60;99.90
9730;DHT22;4904;49.152;11.004;2023-04-24T14:33:35;11.80;99.90
9730;DHT22;4904;49.152;11.004;2023-04-24T14:36:03;11.90;99.90
9730;DHT22;4904;49.152;11.004;2023-04-24T14:38:31;12.10;99.90
9730;DHT22;4904;49.152;11.004;2023-04-24T14:41:00;12.10;99.90
9730;DHT22;4904;49.152;11.004;2023-04-24T14:43:27;12.20;99.90
9730;DHT22;4904;49.152;11.004;2023-04-24T14:45:55;12.00;99.90
9730;DHT22;4904;49.152;11.004;2023-04-24T14:48:22;12.00;99.90
9730;DHT22;4904;49.152;11.004;2023-04-24T14:50:49;11.90;99.90
9730;DHT22;4904;49.152;11.004;2023-04-24T14:53:16;11.70;99.90
9730;DHT22;4904;49.152;11.004;2023-04-24T14:55:44;11.30;99.90
9730;DHT22;4904;49.152;11.004;2023-04-24T14:58:13;11.40;99.90
9730;DHT22;4904;49.152;11.004;2023-04-24T15:00:40;11.10;99.90
9730;DHT22;4904;49.152;11.004;2023-04-24T15:03:07;10.90;99.90
9730;DHT22;4904;49.152;11.004;2023-04-24T15:05:34;10.80;99.90
9730;DHT22;4904;49.152;11.004;2023-04-24T15:08:01;10.40;99.90
9730;DHT22;4904;49.152;11.004;2023-04-24T15:10:28;10.40;99.90
9730;DHT22;4904;49.152;11.004;2023-04-24T15:12:55;10.60;99.90
9730;DHT22;4904;49.152;11.004;2023-04-24T15:15:24;10.40;99.90
9730;DHT22;4904;49.152;11.004;2023-04-24T15:17:51;10.40;99.90
9730;DHT22;4904;49.152;11.004;2023-04-24T15:20:18;10.60;99.90
9730;DHT22;4904;49.152;11.004;2023-04-24T15:22:45;10.90;99.90
9730;DHT22;4904;49.152;11.004;2023-04-24T15:25:12;11.10;99.90
9730;DHT22;4904;49.152;11.004;2023-04-24T15:27:40;11.00;99.90
9730;DHT22;4904;49.152;11.004;2023-04-24T15:30:09;10.90;99.90
9730;DHT22;4904;49.152;11.004;2023-04-24T15:32:38;11.40;99.90
9730;DHT22;4904;49.152;11.004;2023-04-24T15:35:06;11.80;99.90
9730;DHT22;4904;49.152;11.004;2023-04-24T15:37:33;11.80;99.90
9730;DHT22;4904;49.152;11.004;2023-04-24T15:40:01;11.70;99.90
9730;DHT22;4904;49.152;11.004;2023-04-24T15:42:29;11.50;99.90
9730;DHT22;4904;49.152;11.004;2023-04-24T15:44:56;11.30;99.90
9730;DHT22;4904;49.152;11.004;2023-04-24T15:47:24;11.20;99.90
9730;DHT22;4904;49.152;11.004;2023-04-24T15:49:53;11.10;99.90
9730;DHT22;4904;49.152;11.004;2023-04-24T15:52:21;11.00;99.90
9730;DHT22;4904;49.152;11.004;2023-04-24T15:54:48;11.00;99.90